Yaroslavets — UCSJ — position and weather

sailwx.info

Track history (hours):
 
Tides and Currents Weather Stations Pressure Air Temp Water Temp Dewpoint Dewpoint Depression Visibility Wind Speed Wind Dir Waves Ship Positions

Yaroslavets

Last reported at 2018-Feb-18 03:28 UTC. Time now 2018-Feb-18 03:41 UTC.
Position N 68°57' E 033°02'.

Length 53 m; draft 5 m.

Type: Fishing. MMSI: 273555000.

Date/timePositionNaut miles runAvg speedWind from/ knotsBaromVisibWave heightAir tempDewpointWater temp
2018-Feb-18 03:28N 68°57' E 033°02'0 0.0
2018-Feb-18 02:58N 68°57' E 033°02'0 0.0
2018-Feb-18 02:30N 68°57' E 033°02'0 0.0
2018-Feb-18 01:59N 68°57' E 033°02'0 0.0
2018-Feb-18 01:29N 68°57' E 033°02'0 0.0
2018-Feb-18 00:58N 68°57' E 033°02'0 0.0
2018-Feb-18 00:28N 68°57' E 033°02'0 0.0
2018-Feb-17 23:58N 68°57' E 033°02'0 0.0
2018-Feb-17 23:27N 68°57' E 033°02'0 0.0
2018-Feb-17 23:00N 68°57' E 033°02'0 0.0
2018-Feb-17 22:28N 68°57' E 033°02'0 0.0
2018-Feb-17 21:58N 68°57' E 033°02'0 0.0
2018-Feb-17 21:28N 68°57' E 033°02'0 0.0
2018-Feb-17 20:58N 68°57' E 033°02'0 0.0
2018-Feb-17 20:30N 68°57' E 033°02'0 0.0
2018-Feb-17 19:57N 68°57' E 033°02'0 0.0
2018-Feb-17 19:28N 68°57' E 033°02'0 0.0
2018-Feb-17 18:59N 68°57' E 033°02'0 0.0
2018-Feb-17 18:29N 68°57' E 033°02'0 0.0
2018-Feb-17 17:59N 68°57' E 033°02'0 0.0
2018-Feb-17 17:23N 68°57' E 033°02'0 0.0
2018-Feb-17 16:59N 68°57' E 033°02'0 0.0
2018-Feb-17 16:29N 68°57' E 033°02'0 0.0
2018-Feb-17 15:59N 68°57' E 033°02'0 0.0
2018-Feb-17 15:28N 68°57' E 033°02'0 0.0
2018-Feb-17 14:59N 68°57' E 033°02'0 0.0
2018-Feb-17 14:23N 68°57' E 033°02'0 0.0
2018-Feb-17 13:55N 68°57' E 033°02'0 0.0
2018-Feb-17 13:28N 68°57' E 033°02'0 0.0
2018-Feb-17 12:58N 68°57' E 033°02'0 0.0
2018-Feb-17 12:29N 68°57' E 033°02'0 0.0
2018-Feb-17 11:58N 68°57' E 033°02'0 0.0
2018-Feb-17 11:30N 68°57' E 033°02'2 4.9
2018-Feb-17 11:00N 68°59' E 033°02'3 6.1
2018-Feb-17 10:30N 69°02' E 033°03'98 7.1
2018-Feb-16 20:42N 70°35' E 031°35'2 8.9
2018-Feb-16 20:29N 70°36' E 031°30'5 9.4
2018-Feb-16 20:00N 70°39' E 031°20'5 9.9
2018-Feb-16 19:30N 70°42' E 031°09'5 9.8
2018-Feb-16 18:59N 70°45' E 030°56'510.1
2018-Feb-16 18:30N 70°48' E 030°44'5 9.5
2018-Feb-16 18:00N 70°49' E 030°30'611.3
2018-Feb-16 17:30N 70°47' E 030°14'611.8
2018-Feb-16 16:59N 70°45' E 029°56'510.2
2018-Feb-16 16:29N 70°40' E 029°50'3 5.8
2018-Feb-16 15:55N 70°38' E 029°44'0 0.0
2018-Feb-16 15:30N 70°38' E 029°44'0 0.0
2018-Feb-16 15:00N 70°38' E 029°44'0 0.0
2018-Feb-16 14:30N 70°38' E 029°44'0 0.0
2018-Feb-16 14:00N 70°38' E 029°44'0 0.2
2018-Feb-16 13:30N 70°38' E 029°43'0 0.0
2018-Feb-16 13:00N 70°38' E 029°43'0 0.0
2018-Feb-16 12:30N 70°38' E 029°43'0 0.0
2018-Feb-16 12:00N 70°38' E 029°43'0 0.0
2018-Feb-16 11:30N 70°38' E 029°43'0 0.0
2018-Feb-16 11:00N 70°38' E 029°43'0 0.0
2018-Feb-16 10:30N 70°38' E 029°43'0 0.0
2018-Feb-16 09:58N 70°38' E 029°43'0 0.0
2018-Feb-16 09:24N 70°38' E 029°43'0 0.0
2018-Feb-16 09:00N 70°38' E 029°43'0 0.0
2018-Feb-16 08:29N 70°38' E 029°43'0 0.0
2018-Feb-16 07:54N 70°38' E 029°43'0 0.0
2018-Feb-16 07:24N 70°38' E 029°43'0 0.0
2018-Feb-16 07:00N 70°38' E 029°43'0 0.0
2018-Feb-16 06:30N 70°38' E 029°43'0 0.0
2018-Feb-16 05:52N 70°38' E 029°43'0 0.0
2018-Feb-16 05:28N 70°38' E 029°43'0 0.0
2018-Feb-16 04:58N 70°38' E 029°43'0 0.0
2018-Feb-16 04:28N 70°38' E 029°43'0 0.0
2018-Feb-16 03:58N 70°38' E 029°43'0 0.0
2018-Feb-16 03:28N 70°38' E 029°43'0 0.0
2018-Feb-16 02:58N 70°38' E 029°43'0 0.0
2018-Feb-16 02:28N 70°38' E 029°43'0 0.0
2018-Feb-16 01:58N 70°38' E 029°43'0 0.0
2018-Feb-16 01:28N 70°38' E 029°43'0 0.0
2018-Feb-16 00:47N 70°38' E 029°43'0 0.0
2018-Feb-16 00:29N 70°38' E 029°43'0 0.0
2018-Feb-15 23:47N 70°38' E 029°43'0 0.0
2018-Feb-15 23:21N 70°38' E 029°43'0 0.0
2018-Feb-15 22:57N 70°38' E 029°43'0 0.0
2018-Feb-15 22:27N 70°38' E 029°43'0 0.0
2018-Feb-15 21:57N 70°38' E 029°43'0 0.0
2018-Feb-15 21:21N 70°38' E 029°43'0 0.0
2018-Feb-15 20:57N 70°38' E 029°43'0 0.0
2018-Feb-15 20:27N 70°38' E 029°43'0 0.0
2018-Feb-15 19:51N 70°38' E 029°43'0 0.0
2018-Feb-15 19:27N 70°38' E 029°43'0 0.0
2018-Feb-15 18:57N 70°38' E 029°43'0 0.0
2018-Feb-15 18:27N 70°38' E 029°43'0 0.0
2018-Feb-15 17:57N 70°38' E 029°43'0 0.0
2018-Feb-15 17:21N 70°38' E 029°43'0 0.0
2018-Feb-15 16:57N 70°38' E 029°43'0 0.0
2018-Feb-15 16:27N 70°38' E 029°43'0 0.0
2018-Feb-15 15:57N 70°38' E 029°43'0 0.0
2018-Feb-15 15:09N 70°38' E 029°43'0 0.0
2018-Feb-15 15:00N 70°38' E 029°43'1 1.1
2018-Feb-15 14:30N 70°38' E 029°45'510.2
2018-Feb-15 14:00N 70°43' E 029°51'4 8.4
2018-Feb-15 13:28N 70°47' E 029°53'3 7.2
2018-Feb-15 13:00N 70°51' E 029°54'4 7.7
2018-Feb-15 12:30N 70°54' E 029°55'4 7.8
2018-Feb-15 12:00N 70°58' E 029°56'1 2.3
2018-Feb-15 11:30N 70°59' E 029°53'2 3.9
2018-Feb-15 11:00N 70°60' E 029°48'2 4.0
2018-Feb-15 10:30N 71°01' E 029°43'2 3.9
2018-Feb-15 10:01N 71°02' E 029°38'2 3.9
2018-Feb-15 09:30N 71°03' E 029°33'2 3.3
2018-Feb-15 09:00N 71°04' E 029°29'3 5.9
2018-Feb-15 08:30N 71°06' E 029°22'3 6.2
2018-Feb-15 08:00N 71°08' E 029°14'3 6.3
2018-Feb-15 07:30N 71°10' E 029°07'3 5.9
2018-Feb-15 07:01N 71°12' E 028°60'3 5.9
2018-Feb-15 06:30N 71°14' E 028°52'1530.1
2018-Feb-15 06:00N 71°06' E 028°12'141063.8 240 / 161013.210.8 -0.0
2018-Feb-15 05:59N 71°15' E 028°45'3 6.0
2018-Feb-15 05:30N 71°17' E 028°38'3 6.6
2018-Feb-15 05:00N 71°19' E 028°29'3 6.7
2018-Feb-15 04:30N 71°19' E 028°19'3 6.6
2018-Feb-15 04:00N 71°20' E 028°08'3 6.8
2018-Feb-15 03:30N 71°21' E 027°58'3 6.5
2018-Feb-15 03:00N 71°22' E 027°48'3 6.9
2018-Feb-15 02:30N 71°22' E 027°37'4 7.1
2018-Feb-15 01:58N 71°22' E 027°25'3 7.2
2018-Feb-15 01:30N 71°22' E 027°15'4 7.0
2018-Feb-15 01:00N 71°22' E 027°04'4 7.5
2018-Feb-15 00:30N 71°22' E 026°52'4 7.3
2018-Feb-15 00:00N 71°23' E 026°41'4 7.9
2018-Feb-14 23:30N 71°23' E 026°29'4 7.8
2018-Feb-14 22:59N 71°23' E 026°16'4 8.2
2018-Feb-14 22:30N 71°24' E 026°04'5 9.2
2018-Feb-14 22:01N 71°24' E 025°50'5 9.4
2018-Feb-14 21:30N 71°24' E 025°35'4 8.7
2018-Feb-14 21:01N 71°24' E 025°21'4 8.7
2018-Feb-14 20:30N 71°23' E 025°08'5 9.5
2018-Feb-14 20:00N 71°22' E 024°53'5 9.5
2018-Feb-14 19:30N 71°21' E 024°38'5 9.6
2018-Feb-14 19:00N 71°20' E 024°24'5 9.9
2018-Feb-14 18:31N 71°19' E 024°09'510.5
2018-Feb-14 18:00N 71°18' E 023°53'171498.4
2018-Feb-14 18:00N 71°06' E 023°18'1325.3 1011.210.8 -0.0
2018-Feb-14 17:30N 71°17' E 023°38'510.1
2018-Feb-14 16:59N 71°15' E 023°22'510.6
2018-Feb-14 16:30N 71°13' E 023°08'510.7
2018-Feb-14 16:00N 71°10' E 022°53'611.3
2018-Feb-14 15:30N 71°08' E 022°38'612.2
2018-Feb-14 15:00N 71°06' E 022°20'612.1
2018-Feb-14 14:29N 71°03' E 022°03'6410.1
2018-Feb-14 08:09N 70°41' E 018°60'0 2.7
2018-Feb-14 08:00N 70°42' E 018°59'2 4.0
2018-Feb-14 07:30N 70°40' E 018°54'510.0
2018-Feb-14 07:01N 70°38' E 018°41'510.6
2018-Feb-14 06:30N 70°35' E 018°27'5 9.9
2018-Feb-14 06:01N 70°33' E 018°14'261507.9
2018-Feb-14 06:00N 70°12' E 017°30'2143.2 180 / 191006.210.8 2.0
2018-Feb-14 05:30N 70°30' E 018°02'2 4.3
2018-Feb-14 05:00N 70°29' E 017°56'2 4.0
2018-Feb-14 04:31N 70°29' E 017°50'2 4.2
2018-Feb-14 04:01N 70°28' E 017°44'2 4.4
2018-Feb-14 03:30N 70°28' E 017°38'2 3.9
2018-Feb-14 03:01N 70°27' E 017°32'2 4.0
2018-Feb-14 02:31N 70°27' E 017°26'2 4.0
2018-Feb-14 02:00N 70°26' E 017°20'2 3.7
2018-Feb-14 01:31N 70°26' E 017°15'1 2.6
2018-Feb-14 01:01N 70°27' E 017°11'2 3.8
2018-Feb-14 00:30N 70°25' E 017°12'2 3.9
2018-Feb-14 00:01N 70°23' E 017°14'2 3.9
2018-Feb-13 23:31N 70°21' E 017°16'2 3.9
2018-Feb-13 23:00N 70°19' E 017°15'2 3.9
2018-Feb-13 22:26N 70°17' E 017°13'2 4.0
2018-Feb-13 22:00N 70°16' E 017°11'2 4.0
2018-Feb-13 21:31N 70°14' E 017°10'1 1.2
2018-Feb-13 21:00N 70°14' E 017°12'2 4.4
2018-Feb-13 20:31N 70°16' E 017°13'0 1.0
2018-Feb-13 20:00N 70°16' E 017°11'2 4.3
2018-Feb-13 19:31N 70°14' E 017°10'2 4.0
2018-Feb-13 19:01N 70°12' E 017°10'2 4.0
2018-Feb-13 18:30N 70°10' E 017°10'2 4.0
2018-Feb-13 18:01N 70°08' E 017°10'8501.2
2018-Feb-13 18:00N 70°00' E 017°06'613.2 180 / 191003.210.8 -0.0
2018-Feb-13 17:30N 70°06' E 017°10'2 3.2
2018-Feb-13 17:00N 70°05' E 017°12'0 0.5
2018-Feb-13 16:30N 70°05' E 017°12'0 0.4
2018-Feb-13 16:00N 70°05' E 017°13'0 0.6
2018-Feb-13 15:31N 70°05' E 017°13'1 2.4
2018-Feb-13 15:00N 70°06' E 017°13'2 3.0
2018-Feb-13 14:30N 70°08' E 017°14'1 2.8
2018-Feb-13 14:00N 70°09' E 017°15'1 1.2
2018-Feb-13 13:30N 70°10' E 017°15'1 3.0
2018-Feb-13 13:00N 70°11' E 017°16'2 3.4
2018-Feb-13 12:31N 70°13' E 017°17'2 3.1
2018-Feb-13 12:00N 70°14' E 017°19'1 2.9
2018-Feb-13 11:30N 70°16' E 017°20'2 3.1
2018-Feb-13 11:01N 70°17' E 017°21'2 3.2
2018-Feb-13 10:30N 70°19' E 017°22'2 3.2
2018-Feb-13 10:00N 70°20' E 017°21'1 3.0
2018-Feb-13 09:31N 70°22' E 017°21'1 2.8
2018-Feb-13 09:01N 70°23' E 017°20'1 2.7
2018-Feb-13 08:30N 70°24' E 017°20'1 2.5
2018-Feb-13 08:00N 70°26' E 017°20'1 2.4
2018-Feb-13 07:31N 70°27' E 017°21'1 2.3
2018-Feb-13 07:00N 70°28' E 017°22'1 2.0
2018-Feb-13 06:30N 70°29' E 017°22'1 2.6
2018-Feb-13 06:00N 70°30' E 017°22'251722.0
2018-Feb-13 06:00N 70°06' E 017°06'2653.9 170 / 141002.210.8 -0.0
2018-Feb-13 05:31N 70°31' E 017°22'1 2.3
2018-Feb-13 05:00N 70°33' E 017°21'1 1.3
2018-Feb-13 04:31N 70°32' E 017°21'1 2.5
2018-Feb-13 04:00N 70°33' E 017°19'1 2.8
2018-Feb-13 03:31N 70°34' E 017°17'1 1.4
2018-Feb-13 03:00N 70°34' E 017°15'2 3.6
2018-Feb-13 02:31N 70°32' E 017°14'2 3.8
2018-Feb-13 02:00N 70°30' E 017°13'2 4.0
2018-Feb-13 01:31N 70°28' E 017°12'2 4.2
2018-Feb-13 01:00N 70°26' E 017°11'2 4.1
2018-Feb-13 00:30N 70°24' E 017°13'2 4.2
2018-Feb-13 00:00N 70°22' E 017°15'2 4.0
2018-Feb-12 23:30N 70°20' E 017°15'2 3.9
2018-Feb-12 23:00N 70°18' E 017°15'1 1.4
2018-Feb-12 22:31N 70°18' E 017°17'1 2.2
2018-Feb-12 22:01N 70°19' E 017°16'2 4.1
2018-Feb-12 21:30N 70°17' E 017°14'2 4.1
2018-Feb-12 21:00N 70°15' E 017°13'2 4.0
2018-Feb-12 20:30N 70°13' E 017°12'2 4.2
2018-Feb-12 20:01N 70°11' E 017°11'2 4.4
2018-Feb-12 19:30N 70°09' E 017°11'2 4.2
2018-Feb-12 19:01N 70°07' E 017°12'2 4.2
2018-Feb-12 18:30N 70°05' E 017°12'2 3.4
2018-Feb-12 18:01N 70°07' E 017°12'2133.4
2018-Feb-12 18:00N 70°06' E 017°06'3 6.7 170 / 141002.210.8 -0.0
2018-Feb-12 17:30N 70°08' E 017°13'2 4.4
2018-Feb-12 17:00N 70°11' E 017°12'5 9.0
2018-Feb-12 16:30N 70°15' E 017°15'510.2
2018-Feb-12 16:00N 70°20' E 017°18'5 9.8
2018-Feb-12 15:30N 70°25' E 017°20'5 9.6
2018-Feb-12 15:00N 70°29' E 017°24'0 0.5
2018-Feb-12 14:31N 70°29' E 017°24'1 1.1
2018-Feb-12 14:01N 70°29' E 017°25'1 1.1
2018-Feb-12 13:30N 70°28' E 017°26'0 0.9
2018-Feb-12 13:01N 70°28' E 017°26'0 0.9
2018-Feb-12 12:31N 70°28' E 017°26'0 0.9
2018-Feb-12 12:00N 70°27' E 017°26'0 0.8
2018-Feb-12 11:30N 70°27' E 017°25'0 0.8
2018-Feb-12 11:00N 70°26' E 017°25'0 0.8
2018-Feb-12 10:30N 70°26' E 017°25'0 0.8
2018-Feb-12 10:00N 70°25' E 017°25'0 0.9
2018-Feb-12 09:30N 70°25' E 017°24'1 1.2
2018-Feb-12 09:00N 70°25' E 017°22'2 4.6
2018-Feb-12 08:30N 70°27' E 017°24'1 1.2
2018-Feb-12 08:01N 70°27' E 017°22'2 3.7
2018-Feb-12 07:30N 70°25' E 017°19'2 4.5
2018-Feb-12 07:00N 70°23' E 017°16'2 4.1
2018-Feb-12 06:30N 70°21' E 017°17'2 4.1
2018-Feb-12 06:01N 70°19' E 017°16'13796.1
2018-Feb-12 06:00N 70°06' E 017°06'1123.6 170 / 121002.210.8 -0.0
2018-Feb-12 05:31N 70°17' E 017°14'2 4.3
2018-Feb-12 05:00N 70°15' E 017°12'2 4.1
2018-Feb-12 04:31N 70°13' E 017°11'2 4.1
2018-Feb-12 04:00N 70°11' E 017°11'1 2.4
2018-Feb-12 03:30N 70°12' E 017°12'2 4.3
2018-Feb-12 03:01N 70°14' E 017°13'1 2.6
2018-Feb-12 02:30N 70°16' E 017°13'2 4.2
2018-Feb-12 02:01N 70°18' E 017°14'0 0.5
2018-Feb-12 01:31N 70°18' E 017°14'2 4.0
2018-Feb-12 01:01N 70°16' E 017°11'2 4.1
2018-Feb-12 00:31N 70°14' E 017°10'2 4.0
2018-Feb-12 00:00N 70°12' E 017°11'2 4.1
2018-Feb-11 23:30N 70°10' E 017°11'2 4.0
2018-Feb-11 23:01N 70°08' E 017°12'2 4.3
2018-Feb-11 22:31N 70°06' E 017°11'2 4.5
2018-Feb-11 22:01N 70°04' E 017°10'1 1.6
2018-Feb-11 21:31N 70°04' E 017°11'2 3.7
2018-Feb-11 21:01N 70°06' E 017°13'2 4.3
2018-Feb-11 20:30N 70°08' E 017°16'2 4.1
2018-Feb-11 20:00N 70°10' E 017°17'2 4.0
2018-Feb-11 19:30N 70°12' E 017°19'2 3.7
2018-Feb-11 19:00N 70°14' E 017°21'2 4.1
2018-Feb-11 18:30N 70°16' E 017°23'2 4.3
2018-Feb-11 18:00N 70°18' E 017°25'12875.7
2018-Feb-11 18:00N 70°06' E 017°12'1327.4 170 / 141002.210.8 1.0
2018-Feb-11 17:31N 70°18' E 017°26'1 1.3
2018-Feb-11 17:01N 70°18' E 017°25'1 1.2
2018-Feb-11 16:30N 70°17' E 017°25'1 1.1
2018-Feb-11 16:00N 70°17' E 017°25'1 1.0
2018-Feb-11 15:30N 70°16' E 017°25'1 1.0
2018-Feb-11 15:01N 70°16' E 017°25'1 1.1
2018-Feb-11 14:30N 70°15' E 017°25'0 0.9
2018-Feb-11 14:00N 70°15' E 017°26'0 1.0
2018-Feb-11 13:30N 70°15' E 017°26'0 0.9
2018-Feb-11 13:01N 70°14' E 017°26'0 1.0
2018-Feb-11 12:30N 70°14' E 017°27'0 1.0
2018-Feb-11 12:00N 70°13' E 017°27'0 0.8
2018-Feb-11 11:31N 70°13' E 017°27'1 1.9
2018-Feb-11 11:00N 70°12' E 017°29'2 3.4
2018-Feb-11 10:30N 70°12' E 017°34'2 3.2
2018-Feb-11 10:00N 70°12' E 017°38'1 1.7
2018-Feb-11 09:31N 70°11' E 017°38'2 4.3
2018-Feb-11 09:00N 70°12' E 017°33'2 4.4
2018-Feb-11 08:31N 70°12' E 017°26'2 4.0
2018-Feb-11 07:58N 70°13' E 017°21'2 4.1
2018-Feb-11 07:30N 70°14' E 017°15'2 4.2
2018-Feb-11 07:01N 70°13' E 017°10'3 5.0
2018-Feb-11 06:30N 70°15' E 017°15'1 1.7
2018-Feb-11 06:00N 70°15' E 017°13'9845.2
2018-Feb-11 06:00N 70°06' E 017°06'715.0 180 / 141001.210.8 -0.0
2018-Feb-11 05:31N 70°13' E 017°11'2 4.1
2018-Feb-11 05:00N 70°11' E 017°10'2 4.2
2018-Feb-11 04:30N 70°09' E 017°10'2 3.9
2018-Feb-11 04:01N 70°07' E 017°11'2 4.9
2018-Feb-11 03:30N 70°05' E 017°09'1 2.5
2018-Feb-11 03:00N 70°06' E 017°11'2 3.6
2018-Feb-11 02:31N 70°07' E 017°12'2 3.6
2018-Feb-11 02:01N 70°09' E 017°14'2 3.4
2018-Feb-11 01:30N 70°11' E 017°15'2 4.4
2018-Feb-11 01:00N 70°13' E 017°15'2 3.8
2018-Feb-11 00:30N 70°15' E 017°15'1 2.9
2018-Feb-11 00:01N 70°16' E 017°16'1 2.7
2018-Feb-10 23:31N 70°18' E 017°17'1 2.0
2018-Feb-10 23:01N 70°19' E 017°18'1 1.8
2018-Feb-10 22:30N 70°19' E 017°19'1 1.8
2018-Feb-10 22:01N 70°20' E 017°18'1 2.1
2018-Feb-10 21:30N 70°21' E 017°18'1 2.0
2018-Feb-10 21:01N 70°22' E 017°17'2 4.0
2018-Feb-10 20:31N 70°24' E 017°17'2 3.6
2018-Feb-10 20:00N 70°26' E 017°15'2 3.4
2018-Feb-10 19:31N 70°24' E 017°14'2 4.3
2018-Feb-10 19:01N 70°22' E 017°16'2 4.1
2018-Feb-10 18:31N 70°20' E 017°16'2 4.1
2018-Feb-10 18:00N 70°18' E 017°15'13883.7
2018-Feb-10 18:00N 70°06' E 017°06'1021.4 200 / 191001.210.8 2.0
2018-Feb-10 17:30N 70°16' E 017°12'2 4.2
2018-Feb-10 17:01N 70°14' E 017°11'2 4.5
2018-Feb-10 16:30N 70°16' E 017°16'2 3.9
2018-Feb-10 16:01N 70°17' E 017°20'2 3.4
2018-Feb-10 15:30N 70°19' E 017°23'2 3.1
2018-Feb-10 15:01N 70°20' E 017°26'2 3.8
2018-Feb-10 14:31N 70°21' E 017°29'2 4.8
2018-Feb-10 14:00N 70°23' E 017°33'3 5.0
2018-Feb-10 13:30N 70°25' E 017°37'2 4.9
2018-Feb-10 13:01N 70°27' E 017°43'2 4.9
2018-Feb-10 12:31N 70°29' E 017°47'1 1.0
2018-Feb-10 12:00N 70°29' E 017°49'2 4.2
2018-Feb-10 11:31N 70°28' E 017°43'2 4.2
2018-Feb-10 11:01N 70°28' E 017°37'2 4.1
2018-Feb-10 10:31N 70°28' E 017°31'2 4.1
2018-Feb-10 10:01N 70°27' E 017°25'2 4.0
2018-Feb-10 09:31N 70°26' E 017°20'2 4.7
2018-Feb-10 09:00N 70°24' E 017°17'2 4.5
2018-Feb-10 08:30N 70°23' E 017°11'1 1.2
2018-Feb-10 08:00N 70°23' E 017°12'1 2.1
2018-Feb-10 07:30N 70°24' E 017°15'1 1.9
2018-Feb-10 07:00N 70°25' E 017°16'1 2.2
2018-Feb-10 06:30N 70°26' E 017°18'1 2.2
2018-Feb-10 06:01N 70°26' E 017°20'15897.6
2018-Feb-10 06:00N 70°12' E 017°06'1530.3 190 / 231001.210.8 2.0
2018-Feb-10 05:31N 70°26' E 017°20'2 4.5
2018-Feb-10 05:01N 70°24' E 017°16'2 4.2
2018-Feb-10 04:30N 70°22' E 017°16'2 4.1
2018-Feb-10 04:00N 70°20' E 017°16'2 4.2
2018-Feb-10 03:31N 70°18' E 017°15'2 4.5
2018-Feb-10 03:01N 70°16' E 017°12'2 4.8
2018-Feb-10 02:30N 70°13' E 017°11'2 4.7
2018-Feb-10 02:01N 70°11' E 017°11'2 4.3
2018-Feb-10 01:31N 70°09' E 017°12'2 3.5
2018-Feb-10 01:00N 70°07' E 017°12'2 4.0
2018-Feb-10 00:30N 70°09' E 017°13'2 3.5
2018-Feb-10 00:00N 70°11' E 017°16'2 3.2
2018-Feb-09 23:31N 70°12' E 017°20'1 1.7
2018-Feb-09 23:01N 70°12' E 017°18'0 1.8
2018-Feb-09 22:46N 70°12' E 017°19'0 1.9
2018-Feb-09 22:31N 70°13' E 017°20'1 1.7
2018-Feb-09 22:01N 70°13' E 017°21'1 1.6
2018-Feb-09 21:30N 70°14' E 017°20'1 2.6
2018-Feb-09 21:00N 70°15' E 017°19'4 3.9
2018-Feb-09 20:01N 70°19' E 017°19'2 4.0
2018-Feb-09 19:30N 70°21' E 017°20'4 3.7
2018-Feb-09 18:31N 70°25' E 017°24'2 3.7
2018-Feb-09 18:01N 70°26' E 017°26'15889.4
2018-Feb-09 18:00N 70°12' E 017°12'1510.1 180 / 21999.210.8 3.0
2018-Feb-09 16:31N 70°27' E 017°21'2 4.3
2018-Feb-09 16:01N 70°25' E 017°17'2 4.4
2018-Feb-09 15:30N 70°23' E 017°15'2 4.4
2018-Feb-09 15:01N 70°21' E 017°16'4 4.3
2018-Feb-09 14:01N 70°17' E 017°13'1 0.3
2018-Feb-09 11:30N 70°16' E 017°15'8 7.9
2018-Feb-09 10:30N 70°23' E 017°28'18 4.0
2018-Feb-09 06:00N 70°06' E 017°06'1122.2 190 / 191001.210.8 4.0
2018-Feb-09 05:31N 70°17' E 017°12'3 5.1
2018-Feb-09 05:00N 70°14' E 017°11'3 1.4
2018-Feb-09 03:00N 70°17' E 017°14'1 2.4
2018-Feb-09 02:30N 70°18' E 017°16'2 3.4
2018-Feb-09 02:00N 70°19' E 017°17'4 3.6
2018-Feb-09 01:00N 70°23' E 017°15'2 3.0
2018-Feb-09 00:30N 70°24' E 017°14'2 3.7
2018-Feb-09 00:00N 70°26' E 017°12'4 3.6
2018-Feb-08 23:00N 70°30' E 017°11'4 3.6
2018-Feb-08 22:00N 70°33' E 017°13'2 3.1
2018-Feb-08 21:30N 70°35' E 017°14'6 3.8
2018-Feb-08 20:00N 70°40' E 017°18'1 1.7
2018-Feb-08 19:30N 70°39' E 017°19'2 4.2
2018-Feb-08 19:00N 70°37' E 017°20'1919.1
2018-Feb-08 18:00N 70°18' E 017°18'1530.7 200 / 23994.210.8 2.0
2018-Feb-08 17:30N 70°32' E 017°30'7 3.6
2018-Feb-08 15:30N 70°29' E 017°49'2 0.7
2018-Feb-08 12:30N 70°27' E 017°53'1 2.0
2018-Feb-08 12:00N 70°28' E 017°53'4 2.5
2018-Feb-08 10:30N 70°30' E 017°42'6 3.8
2018-Feb-08 09:00N 70°33' E 017°28'2 3.5
2018-Feb-08 08:30N 70°34' E 017°25'3 3.4
2018-Feb-08 07:30N 70°37' E 017°20'3 3.3
2018-Feb-08 06:30N 70°40' E 017°18'1733.0
2018-Feb-08 06:00N 70°24' E 017°30'1510.3 200 / 23995.210.8 -0.0
2018-Feb-08 04:30N 70°38' E 017°15'2 4.0
2018-Feb-08 04:00N 70°36' E 017°15'2 4.0
2018-Feb-08 03:30N 70°34' E 017°16'  
Track history (hours):
 
Tides and Currents Weather Stations Pressure Air Temp Water Temp Dewpoint Dewpoint Depression Visibility Wind Speed Wind Dir Waves Ship Positions

Yaroslavets

Last reported at 2018-Feb-18 03:28 UTC. Time now 2018-Feb-18 03:41 UTC.
Position N 68°57' E 033°02'.

Length 53 m; draft 5 m.

Type: Fishing. MMSI: 273555000.

Date/timePositionNaut miles runAvg speedWind from/ knotsBaromVisibWave heightAir tempDewpointWater temp
2018-Feb-18 03:28N 68°57' E 033°02'0 0.0
2018-Feb-18 02:58N 68°57' E 033°02'0 0.0
2018-Feb-18 02:30N 68°57' E 033°02'0 0.0
2018-Feb-18 01:59N 68°57' E 033°02'0 0.0
2018-Feb-18 01:29N 68°57' E 033°02'0 0.0
2018-Feb-18 00:58N 68°57' E 033°02'0 0.0
2018-Feb-18 00:28N 68°57' E 033°02'0 0.0
2018-Feb-17 23:58N 68°57' E 033°02'0 0.0
2018-Feb-17 23:27N 68°57' E 033°02'0 0.0
2018-Feb-17 23:00N 68°57' E 033°02'0 0.0
2018-Feb-17 22:28N 68°57' E 033°02'0 0.0
2018-Feb-17 21:58N 68°57' E 033°02'0 0.0
2018-Feb-17 21:28N 68°57' E 033°02'0 0.0
2018-Feb-17 20:58N 68°57' E 033°02'0 0.0
2018-Feb-17 20:30N 68°57' E 033°02'0 0.0
2018-Feb-17 19:57N 68°57' E 033°02'0 0.0
2018-Feb-17 19:28N 68°57' E 033°02'0 0.0
2018-Feb-17 18:59N 68°57' E 033°02'0 0.0
2018-Feb-17 18:29N 68°57' E 033°02'0 0.0
2018-Feb-17 17:59N 68°57' E 033°02'0 0.0
2018-Feb-17 17:23N 68°57' E 033°02'0 0.0
2018-Feb-17 16:59N 68°57' E 033°02'0 0.0
2018-Feb-17 16:29N 68°57' E 033°02'0 0.0
2018-Feb-17 15:59N 68°57' E 033°02'0 0.0
2018-Feb-17 15:28N 68°57' E 033°02'0 0.0
2018-Feb-17 14:59N 68°57' E 033°02'0 0.0
2018-Feb-17 14:23N 68°57' E 033°02'0 0.0
2018-Feb-17 13:55N 68°57' E 033°02'0 0.0
2018-Feb-17 13:28N 68°57' E 033°02'0 0.0
2018-Feb-17 12:58N 68°57' E 033°02'0 0.0
2018-Feb-17 12:29N 68°57' E 033°02'0 0.0
2018-Feb-17 11:58N 68°57' E 033°02'0 0.0
2018-Feb-17 11:30N 68°57' E 033°02'2 4.9
2018-Feb-17 11:00N 68°59' E 033°02'3 6.1
2018-Feb-17 10:30N 69°02' E 033°03'98 7.1
2018-Feb-16 20:42N 70°35' E 031°35'2 8.9
2018-Feb-16 20:29N 70°36' E 031°30'5 9.4
2018-Feb-16 20:00N 70°39' E 031°20'5 9.9
2018-Feb-16 19:30N 70°42' E 031°09'5 9.8
2018-Feb-16 18:59N 70°45' E 030°56'510.1
2018-Feb-16 18:30N 70°48' E 030°44'5 9.5
2018-Feb-16 18:00N 70°49' E 030°30'611.3
2018-Feb-16 17:30N 70°47' E 030°14'611.8
2018-Feb-16 16:59N 70°45' E 029°56'510.2
2018-Feb-16 16:29N 70°40' E 029°50'3 5.8
2018-Feb-16 15:55N 70°38' E 029°44'0 0.0
2018-Feb-16 15:30N 70°38' E 029°44'0 0.0
2018-Feb-16 15:00N 70°38' E 029°44'0 0.0
2018-Feb-16 14:30N 70°38' E 029°44'0 0.0
2018-Feb-16 14:00N 70°38' E 029°44'0 0.2
2018-Feb-16 13:30N 70°38' E 029°43'0 0.0
2018-Feb-16 13:00N 70°38' E 029°43'0 0.0
2018-Feb-16 12:30N 70°38' E 029°43'0 0.0
2018-Feb-16 12:00N 70°38' E 029°43'0 0.0
2018-Feb-16 11:30N 70°38' E 029°43'0 0.0
2018-Feb-16 11:00N 70°38' E 029°43'0 0.0
2018-Feb-16 10:30N 70°38' E 029°43'0 0.0
2018-Feb-16 09:58N 70°38' E 029°43'0 0.0
2018-Feb-16 09:24N 70°38' E 029°43'0 0.0
2018-Feb-16 09:00N 70°38' E 029°43'0 0.0
2018-Feb-16 08:29N 70°38' E 029°43'0 0.0
2018-Feb-16 07:54N 70°38' E 029°43'0 0.0
2018-Feb-16 07:24N 70°38' E 029°43'0 0.0
2018-Feb-16 07:00N 70°38' E 029°43'0 0.0
2018-Feb-16 06:30N 70°38' E 029°43'0 0.0
2018-Feb-16 05:52N 70°38' E 029°43'0 0.0
2018-Feb-16 05:28N 70°38' E 029°43'0 0.0
2018-Feb-16 04:58N 70°38' E 029°43'0 0.0
2018-Feb-16 04:28N 70°38' E 029°43'0 0.0
2018-Feb-16 03:58N 70°38' E 029°43'0 0.0
2018-Feb-16 03:28N 70°38' E 029°43'0 0.0
2018-Feb-16 02:58N 70°38' E 029°43'0 0.0
2018-Feb-16 02:28N 70°38' E 029°43'0 0.0
2018-Feb-16 01:58N 70°38' E 029°43'0 0.0
2018-Feb-16 01:28N 70°38' E 029°43'0 0.0
2018-Feb-16 00:47N 70°38' E 029°43'0 0.0
2018-Feb-16 00:29N 70°38' E 029°43'0 0.0
2018-Feb-15 23:47N 70°38' E 029°43'0 0.0
2018-Feb-15 23:21N 70°38' E 029°43'0 0.0
2018-Feb-15 22:57N 70°38' E 029°43'0 0.0
2018-Feb-15 22:27N 70°38' E 029°43'0 0.0
2018-Feb-15 21:57N 70°38' E 029°43'0 0.0
2018-Feb-15 21:21N 70°38' E 029°43'0 0.0
2018-Feb-15 20:57N 70°38' E 029°43'0 0.0
2018-Feb-15 20:27N 70°38' E 029°43'0 0.0
2018-Feb-15 19:51N 70°38' E 029°43'0 0.0
2018-Feb-15 19:27N 70°38' E 029°43'0 0.0
2018-Feb-15 18:57N 70°38' E 029°43'0 0.0
2018-Feb-15 18:27N 70°38' E 029°43'0 0.0
2018-Feb-15 17:57N 70°38' E 029°43'0 0.0
2018-Feb-15 17:21N 70°38' E 029°43'0 0.0
2018-Feb-15 16:57N 70°38' E 029°43'0 0.0
2018-Feb-15 16:27N 70°38' E 029°43'0 0.0
2018-Feb-15 15:57N 70°38' E 029°43'0 0.0
2018-Feb-15 15:09N 70°38' E 029°43'0 0.0
2018-Feb-15 15:00N 70°38' E 029°43'1 1.1
2018-Feb-15 14:30N 70°38' E 029°45'510.2
2018-Feb-15 14:00N 70°43' E 029°51'4 8.4
2018-Feb-15 13:28N 70°47' E 029°53'3 7.2
2018-Feb-15 13:00N 70°51' E 029°54'4 7.7
2018-Feb-15 12:30N 70°54' E 029°55'4 7.8
2018-Feb-15 12:00N 70°58' E 029°56'1 2.3
2018-Feb-15 11:30N 70°59' E 029°53'2 3.9
2018-Feb-15 11:00N 70°60' E 029°48'2 4.0
2018-Feb-15 10:30N 71°01' E 029°43'2 3.9
2018-Feb-15 10:01N 71°02' E 029°38'2 3.9
2018-Feb-15 09:30N 71°03' E 029°33'2 3.3
2018-Feb-15 09:00N 71°04' E 029°29'3 5.9
2018-Feb-15 08:30N 71°06' E 029°22'3 6.2
2018-Feb-15 08:00N 71°08' E 029°14'3 6.3
2018-Feb-15 07:30N 71°10' E 029°07'3 5.9
2018-Feb-15 07:01N 71°12' E 028°60'3 5.9
2018-Feb-15 06:30N 71°14' E 028°52'1530.1
2018-Feb-15 06:00N 71°06' E 028°12'141063.8 240 / 161013.210.8 -0.0
2018-Feb-15 05:59N 71°15' E 028°45'3 6.0
2018-Feb-15 05:30N 71°17' E 028°38'3 6.6
2018-Feb-15 05:00N 71°19' E 028°29'3 6.7
2018-Feb-15 04:30N 71°19' E 028°19'3 6.6
2018-Feb-15 04:00N 71°20' E 028°08'3 6.8
2018-Feb-15 03:30N 71°21' E 027°58'3 6.5
2018-Feb-15 03:00N 71°22' E 027°48'3 6.9
2018-Feb-15 02:30N 71°22' E 027°37'4 7.1
2018-Feb-15 01:58N 71°22' E 027°25'3 7.2
2018-Feb-15 01:30N 71°22' E 027°15'4 7.0
2018-Feb-15 01:00N 71°22' E 027°04'4 7.5
2018-Feb-15 00:30N 71°22' E 026°52'4 7.3
2018-Feb-15 00:00N 71°23' E 026°41'4 7.9
2018-Feb-14 23:30N 71°23' E 026°29'4 7.8
2018-Feb-14 22:59N 71°23' E 026°16'4 8.2
2018-Feb-14 22:30N 71°24' E 026°04'5 9.2
2018-Feb-14 22:01N 71°24' E 025°50'5 9.4
2018-Feb-14 21:30N 71°24' E 025°35'4 8.7
2018-Feb-14 21:01N 71°24' E 025°21'4 8.7
2018-Feb-14 20:30N 71°23' E 025°08'5 9.5
2018-Feb-14 20:00N 71°22' E 024°53'5 9.5
2018-Feb-14 19:30N 71°21' E 024°38'5 9.6
2018-Feb-14 19:00N 71°20' E 024°24'5 9.9
2018-Feb-14 18:31N 71°19' E 024°09'510.5
2018-Feb-14 18:00N 71°18' E 023°53'171498.4
2018-Feb-14 18:00N 71°06' E 023°18'1325.3 1011.210.8 -0.0
2018-Feb-14 17:30N 71°17' E 023°38'510.1
2018-Feb-14 16:59N 71°15' E 023°22'510.6
2018-Feb-14 16:30N 71°13' E 023°08'510.7
2018-Feb-14 16:00N 71°10' E 022°53'611.3
2018-Feb-14 15:30N 71°08' E 022°38'612.2
2018-Feb-14 15:00N 71°06' E 022°20'612.1
2018-Feb-14 14:29N 71°03' E 022°03'6410.1
2018-Feb-14 08:09N 70°41' E 018°60'0 2.7
2018-Feb-14 08:00N 70°42' E 018°59'2 4.0
2018-Feb-14 07:30N 70°40' E 018°54'510.0
2018-Feb-14 07:01N 70°38' E 018°41'510.6
2018-Feb-14 06:30N 70°35' E 018°27'5 9.9
2018-Feb-14 06:01N 70°33' E 018°14'261507.9
2018-Feb-14 06:00N 70°12' E 017°30'2143.2 180 / 191006.210.8 2.0
2018-Feb-14 05:30N 70°30' E 018°02'2 4.3
2018-Feb-14 05:00N 70°29' E 017°56'2 4.0
2018-Feb-14 04:31N 70°29' E 017°50'2 4.2
2018-Feb-14 04:01N 70°28' E 017°44'2 4.4
2018-Feb-14 03:30N 70°28' E 017°38'2 3.9
2018-Feb-14 03:01N 70°27' E 017°32'2 4.0
2018-Feb-14 02:31N 70°27' E 017°26'2 4.0
2018-Feb-14 02:00N 70°26' E 017°20'2 3.7
2018-Feb-14 01:31N 70°26' E 017°15'1 2.6
2018-Feb-14 01:01N 70°27' E 017°11'2 3.8
2018-Feb-14 00:30N 70°25' E 017°12'2 3.9
2018-Feb-14 00:01N 70°23' E 017°14'2 3.9
2018-Feb-13 23:31N 70°21' E 017°16'2 3.9
2018-Feb-13 23:00N 70°19' E 017°15'2 3.9
2018-Feb-13 22:26N 70°17' E 017°13'2 4.0
2018-Feb-13 22:00N 70°16' E 017°11'2 4.0
2018-Feb-13 21:31N 70°14' E 017°10'1 1.2
2018-Feb-13 21:00N 70°14' E 017°12'2 4.4
2018-Feb-13 20:31N 70°16' E 017°13'0 1.0
2018-Feb-13 20:00N 70°16' E 017°11'2 4.3
2018-Feb-13 19:31N 70°14' E 017°10'2 4.0
2018-Feb-13 19:01N 70°12' E 017°10'2 4.0
2018-Feb-13 18:30N 70°10' E 017°10'2 4.0
2018-Feb-13 18:01N 70°08' E 017°10'8501.2
2018-Feb-13 18:00N 70°00' E 017°06'613.2 180 / 191003.210.8 -0.0
2018-Feb-13 17:30N 70°06' E 017°10'2 3.2
2018-Feb-13 17:00N 70°05' E 017°12'0 0.5
2018-Feb-13 16:30N 70°05' E 017°12'0 0.4
2018-Feb-13 16:00N 70°05' E 017°13'0 0.6
2018-Feb-13 15:31N 70°05' E 017°13'1 2.4
2018-Feb-13 15:00N 70°06' E 017°13'2 3.0
2018-Feb-13 14:30N 70°08' E 017°14'1 2.8
2018-Feb-13 14:00N 70°09' E 017°15'1 1.2
2018-Feb-13 13:30N 70°10' E 017°15'1 3.0
2018-Feb-13 13:00N 70°11' E 017°16'2 3.4
2018-Feb-13 12:31N 70°13' E 017°17'2 3.1
2018-Feb-13 12:00N 70°14' E 017°19'1 2.9
2018-Feb-13 11:30N 70°16' E 017°20'2 3.1
2018-Feb-13 11:01N 70°17' E 017°21'2 3.2
2018-Feb-13 10:30N 70°19' E 017°22'2 3.2
2018-Feb-13 10:00N 70°20' E 017°21'1 3.0
2018-Feb-13 09:31N 70°22' E 017°21'1 2.8
2018-Feb-13 09:01N 70°23' E 017°20'1 2.7
2018-Feb-13 08:30N 70°24' E 017°20'1 2.5
2018-Feb-13 08:00N 70°26' E 017°20'1 2.4
2018-Feb-13 07:31N 70°27' E 017°21'1 2.3
2018-Feb-13 07:00N 70°28' E 017°22'1 2.0
2018-Feb-13 06:30N 70°29' E 017°22'1 2.6
2018-Feb-13 06:00N 70°30' E 017°22'251722.0
2018-Feb-13 06:00N 70°06' E 017°06'2653.9 170 / 141002.210.8 -0.0
2018-Feb-13 05:31N 70°31' E 017°22'1 2.3
2018-Feb-13 05:00N 70°33' E 017°21'1 1.3
2018-Feb-13 04:31N 70°32' E 017°21'1 2.5
2018-Feb-13 04:00N 70°33' E 017°19'1 2.8
2018-Feb-13 03:31N 70°34' E 017°17'1 1.4
2018-Feb-13 03:00N 70°34' E 017°15'2 3.6
2018-Feb-13 02:31N 70°32' E 017°14'2 3.8
2018-Feb-13 02:00N 70°30' E 017°13'2 4.0
2018-Feb-13 01:31N 70°28' E 017°12'2 4.2
2018-Feb-13 01:00N 70°26' E 017°11'2 4.1
2018-Feb-13 00:30N 70°24' E 017°13'2 4.2
2018-Feb-13 00:00N 70°22' E 017°15'2 4.0
2018-Feb-12 23:30N 70°20' E 017°15'2 3.9
2018-Feb-12 23:00N 70°18' E 017°15'1 1.4
2018-Feb-12 22:31N 70°18' E 017°17'1 2.2
2018-Feb-12 22:01N 70°19' E 017°16'2 4.1
2018-Feb-12 21:30N 70°17' E 017°14'2 4.1
2018-Feb-12 21:00N 70°15' E 017°13'2 4.0
2018-Feb-12 20:30N 70°13' E 017°12'2 4.2
2018-Feb-12 20:01N 70°11' E 017°11'2 4.4
2018-Feb-12 19:30N 70°09' E 017°11'2 4.2
2018-Feb-12 19:01N 70°07' E 017°12'2 4.2
2018-Feb-12 18:30N 70°05' E 017°12'2 3.4
2018-Feb-12 18:01N 70°07' E 017°12'2133.4
2018-Feb-12 18:00N 70°06' E 017°06'3 6.7 170 / 141002.210.8 -0.0
2018-Feb-12 17:30N 70°08' E 017°13'2 4.4
2018-Feb-12 17:00N 70°11' E 017°12'5 9.0
2018-Feb-12 16:30N 70°15' E 017°15'510.2
2018-Feb-12 16:00N 70°20' E 017°18'5 9.8
2018-Feb-12 15:30N 70°25' E 017°20'5 9.6
2018-Feb-12 15:00N 70°29' E 017°24'0 0.5
2018-Feb-12 14:31N 70°29' E 017°24'1 1.1
2018-Feb-12 14:01N 70°29' E 017°25'1 1.1
2018-Feb-12 13:30N 70°28' E 017°26'0 0.9
2018-Feb-12 13:01N 70°28' E 017°26'0 0.9
2018-Feb-12 12:31N 70°28' E 017°26'0 0.9
2018-Feb-12 12:00N 70°27' E 017°26'0 0.8
2018-Feb-12 11:30N 70°27' E 017°25'0 0.8
2018-Feb-12 11:00N 70°26' E 017°25'0 0.8
2018-Feb-12 10:30N 70°26' E 017°25'0 0.8
2018-Feb-12 10:00N 70°25' E 017°25'0 0.9
2018-Feb-12 09:30N 70°25' E 017°24'1 1.2
2018-Feb-12 09:00N 70°25' E 017°22'2 4.6
2018-Feb-12 08:30N 70°27' E 017°24'1 1.2
2018-Feb-12 08:01N 70°27' E 017°22'2 3.7
2018-Feb-12 07:30N 70°25' E 017°19'2 4.5
2018-Feb-12 07:00N 70°23' E 017°16'2 4.1
2018-Feb-12 06:30N 70°21' E 017°17'2 4.1
2018-Feb-12 06:01N 70°19' E 017°16'13796.1
2018-Feb-12 06:00N 70°06' E 017°06'1123.6 170 / 121002.210.8 -0.0
2018-Feb-12 05:31N 70°17' E 017°14'2 4.3
2018-Feb-12 05:00N 70°15' E 017°12'2 4.1
2018-Feb-12 04:31N 70°13' E 017°11'2 4.1
2018-Feb-12 04:00N 70°11' E 017°11'1 2.4
2018-Feb-12 03:30N 70°12' E 017°12'2 4.3
2018-Feb-12 03:01N 70°14' E 017°13'1 2.6
2018-Feb-12 02:30N 70°16' E 017°13'2 4.2
2018-Feb-12 02:01N 70°18' E 017°14'0 0.5
2018-Feb-12 01:31N 70°18' E 017°14'2 4.0
2018-Feb-12 01:01N 70°16' E 017°11'2 4.1
2018-Feb-12 00:31N 70°14' E 017°10'2 4.0
2018-Feb-12 00:00N 70°12' E 017°11'2 4.1
2018-Feb-11 23:30N 70°10' E 017°11'2 4.0
2018-Feb-11 23:01N 70°08' E 017°12'2 4.3
2018-Feb-11 22:31N 70°06' E 017°11'2 4.5
2018-Feb-11 22:01N 70°04' E 017°10'1 1.6
2018-Feb-11 21:31N 70°04' E 017°11'2 3.7
2018-Feb-11 21:01N 70°06' E 017°13'2 4.3
2018-Feb-11 20:30N 70°08' E 017°16'2 4.1
2018-Feb-11 20:00N 70°10' E 017°17'2 4.0
2018-Feb-11 19:30N 70°12' E 017°19'2 3.7
2018-Feb-11 19:00N 70°14' E 017°21'2 4.1
2018-Feb-11 18:30N 70°16' E 017°23'2 4.3
2018-Feb-11 18:00N 70°18' E 017°25'12875.7
2018-Feb-11 18:00N 70°06' E 017°12'1327.4 170 / 141002.210.8 1.0
2018-Feb-11 17:31N 70°18' E 017°26'1 1.3
2018-Feb-11 17:01N 70°18' E 017°25'1 1.2
2018-Feb-11 16:30N 70°17' E 017°25'1 1.1
2018-Feb-11 16:00N 70°17' E 017°25'1 1.0
2018-Feb-11 15:30N 70°16' E 017°25'1 1.0
2018-Feb-11 15:01N 70°16' E 017°25'1 1.1
2018-Feb-11 14:30N 70°15' E 017°25'0 0.9
2018-Feb-11 14:00N 70°15' E 017°26'0 1.0
2018-Feb-11 13:30N 70°15' E 017°26'0 0.9
2018-Feb-11 13:01N 70°14' E 017°26'0 1.0
2018-Feb-11 12:30N 70°14' E 017°27'0 1.0
2018-Feb-11 12:00N 70°13' E 017°27'0 0.8
2018-Feb-11 11:31N 70°13' E 017°27'1 1.9
2018-Feb-11 11:00N 70°12' E 017°29'2 3.4
2018-Feb-11 10:30N 70°12' E 017°34'2 3.2
2018-Feb-11 10:00N 70°12' E 017°38'1 1.7
2018-Feb-11 09:31N 70°11' E 017°38'2 4.3
2018-Feb-11 09:00N 70°12' E 017°33'2 4.4
2018-Feb-11 08:31N 70°12' E 017°26'2 4.0
2018-Feb-11 07:58N 70°13' E 017°21'2 4.1
2018-Feb-11 07:30N 70°14' E 017°15'2 4.2
2018-Feb-11 07:01N 70°13' E 017°10'3 5.0
2018-Feb-11 06:30N 70°15' E 017°15'1 1.7
2018-Feb-11 06:00N 70°15' E 017°13'9845.2
2018-Feb-11 06:00N 70°06' E 017°06'715.0 180 / 141001.210.8 -0.0
2018-Feb-11 05:31N 70°13' E 017°11'2 4.1
2018-Feb-11 05:00N 70°11' E 017°10'2 4.2
2018-Feb-11 04:30N 70°09' E 017°10'2 3.9
2018-Feb-11 04:01N 70°07' E 017°11'2 4.9
2018-Feb-11 03:30N 70°05' E 017°09'1 2.5
2018-Feb-11 03:00N 70°06' E 017°11'2 3.6
2018-Feb-11 02:31N 70°07' E 017°12'2 3.6
2018-Feb-11 02:01N 70°09' E 017°14'2 3.4
2018-Feb-11 01:30N 70°11' E 017°15'2 4.4
2018-Feb-11 01:00N 70°13' E 017°15'2 3.8
2018-Feb-11 00:30N 70°15' E 017°15'1 2.9
2018-Feb-11 00:01N 70°16' E 017°16'1 2.7
2018-Feb-10 23:31N 70°18' E 017°17'1 2.0
2018-Feb-10 23:01N 70°19' E 017°18'1 1.8
2018-Feb-10 22:30N 70°19' E 017°19'1 1.8
2018-Feb-10 22:01N 70°20' E 017°18'1 2.1
2018-Feb-10 21:30N 70°21' E 017°18'1 2.0
2018-Feb-10 21:01N 70°22' E 017°17'2 4.0
2018-Feb-10 20:31N 70°24' E 017°17'2 3.6
2018-Feb-10 20:00N 70°26' E 017°15'2 3.4
2018-Feb-10 19:31N 70°24' E 017°14'2 4.3
2018-Feb-10 19:01N 70°22' E 017°16'2 4.1
2018-Feb-10 18:31N 70°20' E 017°16'2 4.1
2018-Feb-10 18:00N 70°18' E 017°15'13883.7
2018-Feb-10 18:00N 70°06' E 017°06'1021.4 200 / 191001.210.8 2.0
2018-Feb-10 17:30N 70°16' E 017°12'2 4.2
2018-Feb-10 17:01N 70°14' E 017°11'2 4.5
2018-Feb-10 16:30N 70°16' E 017°16'2 3.9
2018-Feb-10 16:01N 70°17' E 017°20'2 3.4
2018-Feb-10 15:30N 70°19' E 017°23'2 3.1
2018-Feb-10 15:01N 70°20' E 017°26'2 3.8
2018-Feb-10 14:31N 70°21' E 017°29'2 4.8
2018-Feb-10 14:00N 70°23' E 017°33'3 5.0
2018-Feb-10 13:30N 70°25' E 017°37'2 4.9
2018-Feb-10 13:01N 70°27' E 017°43'2 4.9
2018-Feb-10 12:31N 70°29' E 017°47'1 1.0
2018-Feb-10 12:00N 70°29' E 017°49'2 4.2
2018-Feb-10 11:31N 70°28' E 017°43'2 4.2
2018-Feb-10 11:01N 70°28' E 017°37'2 4.1
2018-Feb-10 10:31N 70°28' E 017°31'2 4.1
2018-Feb-10 10:01N 70°27' E 017°25'2 4.0
2018-Feb-10 09:31N 70°26' E 017°20'2 4.7
2018-Feb-10 09:00N 70°24' E 017°17'2 4.5
2018-Feb-10 08:30N 70°23' E 017°11'1 1.2
2018-Feb-10 08:00N 70°23' E 017°12'1 2.1
2018-Feb-10 07:30N 70°24' E 017°15'1 1.9
2018-Feb-10 07:00N 70°25' E 017°16'1 2.2
2018-Feb-10 06:30N 70°26' E 017°18'1 2.2
2018-Feb-10 06:01N 70°26' E 017°20'15897.6
2018-Feb-10 06:00N 70°12' E 017°06'1530.3 190 / 231001.210.8 2.0
2018-Feb-10 05:31N 70°26' E 017°20'2 4.5
2018-Feb-10 05:01N 70°24' E 017°16'2 4.2
2018-Feb-10 04:30N 70°22' E 017°16'2 4.1
2018-Feb-10 04:00N 70°20' E 017°16'2 4.2
2018-Feb-10 03:31N 70°18' E 017°15'2 4.5
2018-Feb-10 03:01N 70°16' E 017°12'2 4.8
2018-Feb-10 02:30N 70°13' E 017°11'2 4.7
2018-Feb-10 02:01N 70°11' E 017°11'2 4.3
2018-Feb-10 01:31N 70°09' E 017°12'2 3.5
2018-Feb-10 01:00N 70°07' E 017°12'2 4.0
2018-Feb-10 00:30N 70°09' E 017°13'2 3.5
2018-Feb-10 00:00N 70°11' E 017°16'2 3.2
2018-Feb-09 23:31N 70°12' E 017°20'1 1.7
2018-Feb-09 23:01N 70°12' E 017°18'0 1.8
2018-Feb-09 22:46N 70°12' E 017°19'0 1.9
2018-Feb-09 22:31N 70°13' E 017°20'1 1.7
2018-Feb-09 22:01N 70°13' E 017°21'1 1.6
2018-Feb-09 21:30N 70°14' E 017°20'1 2.6
2018-Feb-09 21:00N 70°15' E 017°19'4 3.9
2018-Feb-09 20:01N 70°19' E 017°19'2 4.0
2018-Feb-09 19:30N 70°21' E 017°20'4 3.7
2018-Feb-09 18:31N 70°25' E 017°24'2 3.7
2018-Feb-09 18:01N 70°26' E 017°26'15889.4
2018-Feb-09 18:00N 70°12' E 017°12'1510.1 180 / 21999.210.8 3.0
2018-Feb-09 16:31N 70°27' E 017°21'2 4.3
2018-Feb-09 16:01N 70°25' E 017°17'2 4.4
2018-Feb-09 15:30N 70°23' E 017°15'2 4.4
2018-Feb-09 15:01N 70°21' E 017°16'4 4.3
2018-Feb-09 14:01N 70°17' E 017°13'1 0.3
2018-Feb-09 11:30N 70°16' E 017°15'8 7.9
2018-Feb-09 10:30N 70°23' E 017°28'18 4.0
2018-Feb-09 06:00N 70°06' E 017°06'1122.2 190 / 191001.210.8 4.0
2018-Feb-09 05:31N 70°17' E 017°12'3 5.1
2018-Feb-09 05:00N 70°14' E 017°11'3 1.4
2018-Feb-09 03:00N 70°17' E 017°14'1 2.4
2018-Feb-09 02:30N 70°18' E 017°16'2 3.4
2018-Feb-09 02:00N 70°19' E 017°17'4 3.6
2018-Feb-09 01:00N 70°23' E 017°15'2 3.0
2018-Feb-09 00:30N 70°24' E 017°14'2 3.7
2018-Feb-09 00:00N 70°26' E 017°12'4 3.6
2018-Feb-08 23:00N 70°30' E 017°11'4 3.6
2018-Feb-08 22:00N 70°33' E 017°13'2 3.1
2018-Feb-08 21:30N 70°35' E 017°14'6 3.8
2018-Feb-08 20:00N 70°40' E 017°18'1 1.7
2018-Feb-08 19:30N 70°39' E 017°19'2 4.2
2018-Feb-08 19:00N 70°37' E 017°20'1919.1
2018-Feb-08 18:00N 70°18' E 017°18'1530.7 200 / 23994.210.8 2.0
2018-Feb-08 17:30N 70°32' E 017°30'7 3.6
2018-Feb-08 15:30N 70°29' E 017°49'2 0.7
2018-Feb-08 12:30N 70°27' E 017°53'1 2.0
2018-Feb-08 12:00N 70°28' E 017°53'4 2.5
2018-Feb-08 10:30N 70°30' E 017°42'6 3.8
2018-Feb-08 09:00N 70°33' E 017°28'2 3.5
2018-Feb-08 08:30N 70°34' E 017°25'3 3.4
2018-Feb-08 07:30N 70°37' E 017°20'3 3.3
2018-Feb-08 06:30N 70°40' E 017°18'1733.0
2018-Feb-08 06:00N 70°24' E 017°30'1510.3 200 / 23995.210.8 -0.0
2018-Feb-08 04:30N 70°38' E 017°15'2 4.0
2018-Feb-08 04:00N 70°36' E 017°15'2 4.0
2018-Feb-08 03:30N 70°34' E 017°16'  

Dump ship's entire track history